南京市, Jiangsu

2014年9月21日 04時00分 (GMT +0800)
Lukou | Change Station
CLOSE
Current Station
機場
Location: Nanjing,
海拔: 118 ft
附近的氣象站

海拔 118 ft 31.93 °N, 118.90 °E | Updated 1 hour ago

Mist
66 °F
感覺像 66 °F
7
風 變化 風 來自 東北

今日
高 -- | 低 -- °F
--% 降水機率
昨天
高 -- | 低 -- °F
Precip. -- 英寸
5:51 AM 6:03 PM
殘月, 11% visible
氣壓 29.92 英寸
能見度 2.2 英里
多雲
露點 64 °F
濕度 94%
降雨量 0.00 英寸
積雪深度 不適用。
紫外線 不適用。
花粉 不適用。
空氣質素 不適用。
Flu Activity 不適用。
METAR ZSNJ 201900Z 05003MPS 3500 BR NSC 19/18 Q1013 NOSIG

More Conditions Fewer Conditions

氣壓 29.92 英寸
能見度 2.2 英里
多雲
露點 64 °F
濕度 94%
降雨量 0.00 英寸
積雪深度 不適用。
紫外線 不適用。
花粉 不適用。
空氣質素 不適用。
Flu Activity 不適用。
METAR ZSNJ 201900Z 05003MPS 3500 BR NSC 19/18 Q1013 NOSIG

More Conditions Fewer Conditions

10-Day Weather Forecast

Almanac

天文

Sep. 21, 2014 昇起 降落
實際時間 05:51 CST 18:03 CST
民用曙暮光 05:27 CST 18:27 CST
航海曙暮光 04:59 CST 18:55 CST
天文學微明 04:30 CST 19:24 CST
月亮 03:02 CST (9/21) 16:13 CST (9/21)
可見光的長度 13h 00m
白晝時間
12h 11m
Tomorrow will be 1m 55s shorter.
殘月, 11% of the Moon is Illuminated
9月 20
殘月
9月 24
10月 1
第一季
10月 8
滿月
10月 15
第四季

昨天之最

國家高溫 國家低溫

Community

WunderPhotos

Upload Photos

1,754,927 照片已上傳!

WunderBlogs® & News

Nearby

積雪量

Not available.

地震活動

城市 距離 時間和日期
附近沒有最近發生的地震活動。
顯示的最小幅度是2.5。

沿海水溫

地點 溫度
無任何天氣監測站報告

附近的氣象站